createdAt,value
2022-08-17T00:00:51.998Z,18.83
2022-08-17T00:01:52.602Z,18.84
2022-08-17T00:02:48.928Z,18.84
2022-08-17T00:03:47.815Z,18.83
2022-08-17T00:04:50.604Z,18.84
2022-08-17T00:05:47.807Z,18.82
2022-08-17T00:06:49.405Z,18.82
2022-08-17T00:07:47.828Z,18.80
2022-08-17T00:08:47.783Z,18.79
2022-08-17T00:09:47.764Z,18.79
2022-08-17T00:10:47.758Z,18.79
2022-08-17T00:12:35.042Z,18.76
2022-08-17T00:12:48.717Z,18.76
2022-08-17T00:13:47.710Z,18.76
2022-08-17T00:14:47.711Z,18.73
2022-08-17T00:15:47.709Z,18.70
2022-08-17T00:16:55.283Z,18.67
2022-08-17T00:17:48.705Z,18.62
2022-08-17T00:19:01.685Z,18.57
2022-08-17T00:19:48.634Z,18.55
2022-08-17T00:20:47.630Z,18.52
2022-08-17T00:22:29.609Z,18.50
2022-08-17T00:22:48.792Z,18.49
2022-08-17T00:23:49.484Z,18.47
2022-08-17T00:24:47.587Z,18.44
2022-08-17T00:25:47.563Z,18.43
2022-08-17T00:26:47.582Z,18.37
2022-08-17T00:27:47.550Z,18.34
2022-08-17T00:28:47.535Z,18.29
2022-08-17T00:29:47.519Z,18.27
2022-08-17T00:30:51.325Z,18.27
2022-08-17T00:31:48.607Z,18.27
2022-08-17T00:33:14.164Z,18.28
2022-08-17T00:33:48.478Z,18.27
2022-08-17T00:34:47.467Z,18.29
2022-08-17T00:35:47.484Z,18.33
2022-08-17T00:36:47.467Z,18.34
2022-08-17T00:37:47.437Z,18.37
2022-08-17T00:38:47.428Z,18.40
2022-08-17T00:39:47.524Z,18.40
2022-08-17T00:40:47.401Z,18.37
2022-08-17T00:41:47.390Z,18.40
2022-08-17T00:42:47.395Z,18.37
2022-08-17T00:43:47.370Z,18.37
2022-08-17T00:44:47.360Z,18.34
2022-08-17T00:45:47.366Z,18.36
2022-08-17T00:46:47.341Z,18.36
2022-08-17T00:47:47.339Z,18.33
2022-08-17T00:48:47.312Z,18.28
2022-08-17T00:49:47.304Z,18.27
2022-08-17T00:50:47.283Z,18.27
2022-08-17T00:51:47.290Z,18.25
2022-08-17T00:52:48.308Z,18.27
2022-08-17T00:53:47.254Z,18.25
2022-08-17T00:54:47.246Z,18.28
2022-08-17T00:55:47.254Z,18.25
2022-08-17T00:56:47.216Z,18.25
2022-08-17T00:57:51.187Z,18.24
2022-08-17T00:58:48.197Z,18.22
2022-08-17T00:59:47.196Z,18.21
2022-08-17T01:00:48.238Z,18.21
2022-08-17T01:01:47.169Z,18.19
2022-08-17T01:02:47.175Z,18.17
2022-08-17T01:03:47.145Z,18.17
2022-08-17T01:04:47.132Z,18.10
2022-08-17T01:05:47.136Z,18.09
2022-08-17T01:06:47.125Z,18.03
2022-08-17T01:07:47.117Z,18.02
2022-08-17T01:08:47.099Z,18.00
2022-08-17T01:09:47.075Z,17.97
2022-08-17T01:10:59.917Z,17.97
2022-08-17T01:11:48.062Z,17.95
2022-08-17T01:12:47.044Z,17.95
2022-08-17T01:13:47.075Z,17.94
2022-08-17T01:14:47.028Z,17.95
2022-08-17T01:15:47.029Z,17.94
2022-08-17T01:16:46.994Z,17.94
2022-08-17T01:17:47.007Z,17.94
2022-08-17T01:18:47.009Z,17.95
2022-08-17T01:19:46.966Z,17.99
2022-08-17T01:20:48.595Z,18.00
2022-08-17T01:21:46.958Z,18.00
2022-08-17T01:22:46.956Z,18.03
2022-08-17T01:23:46.937Z,18.04
2022-08-17T01:24:46.914Z,18.07
2022-08-17T01:25:46.898Z,18.07
2022-08-17T01:26:46.888Z,18.06
2022-08-17T01:27:46.897Z,18.06
2022-08-17T01:28:54.181Z,18.04
2022-08-17T01:29:47.871Z,18.06
2022-08-17T01:30:59.034Z,18.07
2022-08-17T01:31:47.850Z,18.04
2022-08-17T01:32:46.834Z,18.07
2022-08-17T01:33:46.821Z,18.06
2022-08-17T01:34:50.645Z,18.09
2022-08-17T01:35:46.790Z,18.06
2022-08-17T01:36:46.781Z,18.06
2022-08-17T01:37:46.769Z,18.03
2022-08-17T01:38:46.796Z,17.99
2022-08-17T01:39:46.825Z,17.97
2022-08-17T01:40:46.741Z,17.95
2022-08-17T01:41:46.728Z,17.94
2022-08-17T01:42:46.766Z,17.94
2022-08-17T01:43:46.714Z,17.92
2022-08-17T01:44:46.694Z,17.94
2022-08-17T01:45:46.705Z,17.97
2022-08-17T01:46:46.674Z,17.95
2022-08-17T01:47:46.655Z,17.95
2022-08-17T01:48:46.649Z,17.92
2022-08-17T01:49:46.644Z,17.91
2022-08-17T01:50:46.660Z,17.85
2022-08-17T01:51:46.618Z,17.79
2022-08-17T01:52:46.627Z,17.71
2022-08-17T01:53:46.616Z,17.67
2022-08-17T01:54:46.587Z,17.64
2022-08-17T01:55:46.568Z,17.62
2022-08-17T01:56:47.490Z,17.64
2022-08-17T01:57:46.584Z,17.62
2022-08-17T01:58:46.562Z,17.63
2022-08-17T01:59:46.523Z,17.64
2022-08-17T02:00:59.654Z,17.66
2022-08-17T02:01:47.554Z,17.66
2022-08-17T02:02:46.499Z,17.67
2022-08-17T02:03:59.035Z,17.63
2022-08-17T02:04:47.482Z,17.57
2022-08-17T02:05:46.455Z,17.54
2022-08-17T02:06:53.765Z,17.55
2022-08-17T02:07:59.375Z,17.54
2022-08-17T02:08:57.005Z,17.54
2022-08-17T02:09:49.363Z,17.54
2022-08-17T02:10:47.428Z,17.54
2022-08-17T02:11:46.446Z,17.53
2022-08-17T02:12:46.391Z,17.51
2022-08-17T02:13:46.365Z,17.50
2022-08-17T02:14:46.366Z,17.50
2022-08-17T02:15:46.355Z,17.50
2022-08-17T02:16:46.406Z,17.50
2022-08-17T02:17:46.326Z,17.50
2022-08-17T02:18:46.321Z,17.50
2022-08-17T02:19:46.323Z,17.50
2022-08-17T02:20:46.297Z,17.48
2022-08-17T02:21:46.287Z,17.47
2022-08-17T02:22:46.390Z,17.46
2022-08-17T02:23:46.254Z,17.44
2022-08-17T02:25:00.490Z,17.44
2022-08-17T02:25:47.240Z,17.46
2022-08-17T02:26:46.228Z,17.50
2022-08-17T02:27:46.210Z,17.53
2022-08-17T02:28:46.226Z,17.54
2022-08-17T02:29:47.181Z,17.54
2022-08-17T02:30:50.153Z,17.55
2022-08-17T02:31:47.175Z,17.54
2022-08-17T02:32:46.202Z,17.53
2022-08-17T02:33:47.097Z,17.50
2022-08-17T02:34:47.142Z,17.47
2022-08-17T02:35:47.082Z,17.48
2022-08-17T02:36:46.137Z,17.44
2022-08-17T02:37:47.049Z,17.44
2022-08-17T02:38:46.108Z,17.44
2022-08-17T02:39:46.127Z,17.43
2022-08-17T02:40:46.084Z,17.38
2022-08-17T02:41:46.076Z,17.35
2022-08-17T02:42:46.109Z,17.32
2022-08-17T02:43:46.040Z,17.33
2022-08-17T02:44:46.042Z,17.33
2022-08-17T02:45:46.037Z,17.30
2022-08-17T02:46:46.022Z,17.32
2022-08-17T02:47:45.997Z,17.30
2022-08-17T02:48:45.989Z,17.32
2022-08-17T02:49:55.870Z,17.30
2022-08-17T02:50:46.958Z,17.33
2022-08-17T02:51:45.971Z,17.35
2022-08-17T02:52:55.261Z,17.33
2022-08-17T02:53:46.937Z,17.33
2022-08-17T02:54:45.919Z,17.33
2022-08-17T02:55:45.947Z,17.35
2022-08-17T02:56:45.895Z,17.32
2022-08-17T02:57:45.899Z,17.33
2022-08-17T02:58:45.905Z,17.35
2022-08-17T02:59:49.027Z,17.32
2022-08-17T03:00:45.877Z,17.29
2022-08-17T03:01:45.890Z,17.29
2022-08-17T03:02:46.000Z,17.29
2022-08-17T03:03:45.828Z,17.29
2022-08-17T03:04:45.810Z,17.28
2022-08-17T03:05:45.811Z,17.28
2022-08-17T03:06:45.786Z,17.25
2022-08-17T03:07:45.765Z,17.23
2022-08-17T03:08:45.766Z,17.23
2022-08-17T03:09:45.760Z,17.22
2022-08-17T03:10:45.767Z,17.20
2022-08-17T03:11:45.725Z,17.18
2022-08-17T03:12:45.729Z,17.17
2022-08-17T03:13:45.708Z,17.15
2022-08-17T03:14:45.697Z,17.10
2022-08-17T03:15:45.701Z,17.10
2022-08-17T03:16:45.685Z,17.08
2022-08-17T03:17:45.691Z,17.10
2022-08-17T03:18:45.651Z,17.08
2022-08-17T03:19:45.657Z,17.08
2022-08-17T03:20:45.642Z,17.11
2022-08-17T03:21:45.651Z,17.11
2022-08-17T03:22:53.190Z,17.10
2022-08-17T03:23:46.624Z,17.13
2022-08-17T03:24:47.538Z,17.14
2022-08-17T03:25:45.586Z,17.15
2022-08-17T03:26:45.562Z,17.17
2022-08-17T03:27:48.270Z,17.18
2022-08-17T03:28:46.545Z,17.22
2022-08-17T03:29:45.544Z,17.22
2022-08-17T03:30:45.526Z,17.22
2022-08-17T03:31:45.515Z,17.22
2022-08-17T03:32:45.493Z,17.20
2022-08-17T03:33:45.509Z,17.20
2022-08-17T03:34:45.487Z,17.20
2022-08-17T03:35:45.468Z,17.18
2022-08-17T03:36:45.449Z,17.18
2022-08-17T03:37:45.443Z,17.18
2022-08-17T03:38:45.451Z,17.14
2022-08-17T03:39:45.499Z,17.13
2022-08-17T03:40:57.136Z,17.11
2022-08-17T03:41:46.413Z,17.08
2022-08-17T03:42:45.458Z,17.07
2022-08-17T03:43:45.369Z,17.04
2022-08-17T03:44:45.379Z,17.04
2022-08-17T03:45:45.364Z,17.03
2022-08-17T03:46:45.335Z,16.98
2022-08-17T03:47:45.331Z,16.90
2022-08-17T03:48:45.309Z,16.85
2022-08-17T03:49:46.282Z,16.80
2022-08-17T03:50:45.293Z,16.71
2022-08-17T03:51:45.317Z,16.67
2022-08-17T03:52:45.276Z,16.68
2022-08-17T03:53:46.256Z,16.68
2022-08-17T03:54:46.201Z,16.73
2022-08-17T03:55:45.251Z,16.75
2022-08-17T03:56:45.242Z,16.75
2022-08-17T03:57:45.213Z,16.75
2022-08-17T03:58:45.220Z,16.74
2022-08-17T03:59:46.162Z,16.74
2022-08-17T04:00:45.190Z,16.74
2022-08-17T04:01:45.228Z,16.77
2022-08-17T04:02:46.110Z,16.78
2022-08-17T04:03:45.172Z,16.83
2022-08-17T04:04:45.134Z,16.81
2022-08-17T04:05:45.138Z,16.83
2022-08-17T04:06:45.116Z,16.81
2022-08-17T04:07:45.129Z,16.78
2022-08-17T04:08:45.086Z,16.74
2022-08-17T04:09:45.091Z,16.68
2022-08-17T04:10:45.487Z,16.63
2022-08-17T04:11:45.063Z,16.62
2022-08-17T04:12:45.062Z,16.62
2022-08-17T04:13:45.048Z,16.62
2022-08-17T04:14:53.381Z,16.63
2022-08-17T04:15:46.022Z,16.65
2022-08-17T04:16:45.023Z,16.70
2022-08-17T04:17:44.985Z,16.75
2022-08-17T04:18:44.982Z,16.80
2022-08-17T04:19:44.973Z,16.85
2022-08-17T04:20:44.982Z,16.86
2022-08-17T04:21:44.951Z,16.90
2022-08-17T04:22:44.994Z,16.92
2022-08-17T04:23:44.933Z,16.96
2022-08-17T04:24:44.912Z,16.98
2022-08-17T04:25:44.911Z,17.00
2022-08-17T04:26:52.490Z,17.00
2022-08-17T04:27:45.902Z,17.04
2022-08-17T04:28:44.883Z,17.07
2022-08-17T04:29:55.626Z,17.08
2022-08-17T04:30:45.860Z,17.13
2022-08-17T04:31:44.836Z,17.14
2022-08-17T04:33:10.558Z,17.17
2022-08-17T04:33:45.827Z,17.20
2022-08-17T04:34:44.807Z,17.25
2022-08-17T04:35:44.807Z,17.28
2022-08-17T04:36:50.208Z,17.29
2022-08-17T04:37:45.783Z,17.30
2022-08-17T04:38:44.763Z,17.32
2022-08-17T04:39:44.858Z,17.33
2022-08-17T04:40:44.776Z,17.38
2022-08-17T04:41:44.732Z,17.41
2022-08-17T04:42:44.719Z,17.44
2022-08-17T04:43:44.712Z,17.41
2022-08-17T04:44:44.727Z,17.38
2022-08-17T04:45:55.566Z,17.33
2022-08-17T04:46:45.677Z,17.30
2022-08-17T04:47:44.666Z,17.26
2022-08-17T04:48:44.651Z,17.26
2022-08-17T04:49:44.649Z,17.29
2022-08-17T04:50:44.652Z,17.32
2022-08-17T04:51:54.462Z,17.36
2022-08-17T04:52:45.603Z,17.41
2022-08-17T04:53:44.617Z,17.38
2022-08-17T04:54:44.601Z,17.36
2022-08-17T04:55:44.584Z,17.32
2022-08-17T04:56:44.570Z,17.29
2022-08-17T04:57:45.233Z,17.29
2022-08-17T04:58:44.550Z,17.26
2022-08-17T04:59:44.540Z,17.26
2022-08-17T05:00:44.534Z,17.29
2022-08-17T05:01:44.606Z,17.29
2022-08-17T05:02:49.983Z,17.35
2022-08-17T05:03:45.498Z,17.40
2022-08-17T05:04:44.481Z,17.46
2022-08-17T05:05:44.461Z,17.51
2022-08-17T05:06:44.472Z,17.59
2022-08-17T05:07:44.446Z,17.66
2022-08-17T05:08:44.434Z,17.73
2022-08-17T05:09:44.420Z,17.78
2022-08-17T05:10:45.541Z,17.78
2022-08-17T05:11:45.044Z,17.81
2022-08-17T05:12:44.390Z,17.81
2022-08-17T05:13:44.402Z,17.82
2022-08-17T05:14:44.365Z,17.91
2022-08-17T05:15:45.166Z,17.99
2022-08-17T05:16:44.351Z,18.10
2022-08-17T05:17:44.341Z,18.28
2022-08-17T05:18:44.346Z,18.40
2022-08-17T05:19:47.607Z,18.52
2022-08-17T05:20:45.303Z,18.59
2022-08-17T05:21:44.304Z,18.58
2022-08-17T05:22:44.279Z,18.54
2022-08-17T05:23:44.278Z,18.54
2022-08-17T05:24:53.408Z,18.55
2022-08-17T05:25:47.421Z,18.62
2022-08-17T05:26:44.241Z,18.68
2022-08-17T05:27:44.227Z,18.73
2022-08-17T05:28:44.226Z,18.74
2022-08-17T05:29:44.201Z,18.76
2022-08-17T05:30:44.178Z,18.74
2022-08-17T05:31:44.178Z,18.79
2022-08-17T05:32:44.173Z,18.87
2022-08-17T05:33:46.288Z,18.92
2022-08-17T05:34:44.157Z,18.95
2022-08-17T05:35:44.138Z,18.94
2022-08-17T05:36:44.575Z,18.92
2022-08-17T05:37:44.128Z,18.94
2022-08-17T05:38:44.100Z,18.99
2022-08-17T05:39:44.128Z,19.05
2022-08-17T05:40:44.087Z,19.05
2022-08-17T05:41:44.084Z,19.02
2022-08-17T05:42:44.059Z,19.01
2022-08-17T05:43:44.057Z,19.02
2022-08-17T05:44:44.031Z,19.08
2022-08-17T05:45:54.365Z,19.13
2022-08-17T05:46:45.008Z,19.11
2022-08-17T05:47:44.015Z,19.11
2022-08-17T05:48:43.980Z,19.08
2022-08-17T05:49:43.986Z,19.01
2022-08-17T05:50:43.958Z,19.06
2022-08-17T05:51:43.953Z,19.10
2022-08-17T05:52:43.977Z,19.10
2022-08-17T05:53:43.954Z,19.10
2022-08-17T05:54:43.925Z,19.02
2022-08-17T05:55:43.921Z,19.02
2022-08-17T05:56:43.903Z,19.05
2022-08-17T05:57:53.536Z,19.05
2022-08-17T05:58:44.883Z,18.99
2022-08-17T05:59:44.844Z,18.95
2022-08-17T06:00:43.958Z,18.80
2022-08-17T06:01:43.845Z,18.68
2022-08-17T06:02:47.733Z,18.57
2022-08-17T06:03:43.832Z,18.54
2022-08-17T06:04:43.815Z,18.54
2022-08-17T06:05:43.830Z,18.47
2022-08-17T06:06:43.791Z,18.47
2022-08-17T06:07:43.784Z,18.49
2022-08-17T06:08:43.763Z,18.57
2022-08-17T06:09:43.788Z,18.61
2022-08-17T06:10:43.745Z,18.70
2022-08-17T06:11:43.766Z,18.80
2022-08-17T06:12:43.791Z,18.92
2022-08-17T06:13:43.734Z,19.01
2022-08-17T06:14:43.702Z,19.13
2022-08-17T06:15:43.717Z,19.20
2022-08-17T06:16:43.681Z,19.25
2022-08-17T06:17:43.656Z,19.29
2022-08-17T06:18:43.671Z,19.29
2022-08-17T06:19:43.648Z,19.25
2022-08-17T06:20:43.634Z,19.28
2022-08-17T06:21:43.624Z,19.33
2022-08-17T06:22:43.663Z,19.39
2022-08-17T06:23:43.633Z,19.47
2022-08-17T06:24:43.614Z,19.51
2022-08-17T06:25:43.614Z,19.54
2022-08-17T06:26:43.616Z,19.57
2022-08-17T06:27:43.562Z,19.61
2022-08-17T06:28:43.549Z,19.61
2022-08-17T06:29:43.538Z,19.68
2022-08-17T06:30:59.174Z,19.73
2022-08-17T06:31:44.511Z,19.78
2022-08-17T06:32:43.582Z,19.80
2022-08-17T06:33:43.494Z,19.83
2022-08-17T06:34:43.474Z,19.88
2022-08-17T06:35:43.715Z,19.90
2022-08-17T06:36:43.459Z,19.90
2022-08-17T06:37:43.469Z,19.91
2022-08-17T06:38:43.430Z,19.93
2022-08-17T06:39:43.444Z,19.86
2022-08-17T06:40:43.477Z,19.84
2022-08-17T06:41:43.403Z,19.84
2022-08-17T06:43:02.667Z,19.87
2022-08-17T06:43:47.903Z,19.87
2022-08-17T06:44:51.304Z,19.95
2022-08-17T06:45:44.353Z,20.02
2022-08-17T06:46:43.350Z,20.09
2022-08-17T06:47:43.340Z,20.20
2022-08-17T06:48:43.314Z,20.25
2022-08-17T06:49:43.356Z,20.30
2022-08-17T06:50:43.301Z,20.31
2022-08-17T06:51:43.323Z,20.33
2022-08-17T06:52:47.141Z,20.28
2022-08-17T06:53:43.279Z,20.24
2022-08-17T06:54:43.254Z,20.25
2022-08-17T06:55:43.244Z,20.30
2022-08-17T06:56:54.294Z,20.35
2022-08-17T06:57:44.222Z,20.47
2022-08-17T06:58:43.241Z,20.53
2022-08-17T06:59:55.643Z,20.59
2022-08-17T07:00:44.233Z,20.64
2022-08-17T07:01:43.181Z,20.66
2022-08-17T07:03:02.427Z,20.72
2022-08-17T07:03:44.172Z,20.77
2022-08-17T07:04:43.155Z,20.83
2022-08-17T07:05:43.137Z,20.81
2022-08-17T07:06:43.115Z,20.86
2022-08-17T07:07:43.115Z,20.79
2022-08-17T07:08:43.109Z,20.72
2022-08-17T07:09:43.097Z,20.65
2022-08-17T07:10:43.088Z,20.65
2022-08-17T07:11:43.071Z,20.62
2022-08-17T07:12:43.109Z,20.69
2022-08-17T07:13:43.080Z,20.76
2022-08-17T07:14:44.039Z,20.86
2022-08-17T07:15:43.041Z,20.93
2022-08-17T07:16:43.021Z,21.01
2022-08-17T07:17:47.631Z,21.05
2022-08-17T07:18:42.982Z,21.11
2022-08-17T07:19:42.992Z,21.21
2022-08-17T07:20:42.975Z,21.23
2022-08-17T07:21:42.951Z,21.27
2022-08-17T07:22:50.408Z,21.27
2022-08-17T07:23:43.950Z,21.29
2022-08-17T07:24:42.952Z,21.32
2022-08-17T07:25:42.940Z,21.38
2022-08-17T07:26:43.868Z,21.38
2022-08-17T07:27:43.005Z,21.41
2022-08-17T07:28:42.879Z,21.46
2022-08-17T07:29:42.880Z,21.50
2022-08-17T07:30:46.892Z,21.53
2022-08-17T07:31:42.850Z,21.56
2022-08-17T07:32:43.785Z,21.60
2022-08-17T07:33:42.818Z,21.63
2022-08-17T07:34:42.811Z,21.64
2022-08-17T07:35:43.944Z,21.69
2022-08-17T07:36:42.790Z,21.71
2022-08-17T07:37:42.818Z,21.76
2022-08-17T07:38:42.764Z,21.78
2022-08-17T07:40:14.819Z,21.78
2022-08-17T07:40:43.791Z,21.83
2022-08-17T07:41:57.250Z,21.90
2022-08-17T07:42:46.710Z,21.94
2022-08-17T07:43:42.704Z,21.97
2022-08-17T07:44:42.708Z,22.01
2022-08-17T07:45:42.694Z,21.99
2022-08-17T07:46:42.689Z,22.07
2022-08-17T07:47:42.668Z,22.07
2022-08-17T07:48:42.681Z,22.09
2022-08-17T07:49:42.634Z,22.14
2022-08-17T07:50:42.636Z,22.13
2022-08-17T07:51:43.618Z,22.17
2022-08-17T07:52:50.771Z,22.22
2022-08-17T07:53:43.599Z,22.25
2022-08-17T07:54:42.597Z,22.35
2022-08-17T07:55:42.573Z,22.47
2022-08-17T07:56:43.539Z,22.57
2022-08-17T07:57:42.563Z,22.68
2022-08-17T07:58:42.543Z,22.75
2022-08-17T07:59:43.205Z,22.84
2022-08-17T08:00:42.536Z,22.90
2022-08-17T08:01:42.656Z,22.93
2022-08-17T08:02:42.518Z,22.94
2022-08-17T08:03:42.506Z,23.02
2022-08-17T08:04:59.707Z,23.11
2022-08-17T08:05:49.309Z,23.15
2022-08-17T08:06:43.455Z,23.19
2022-08-17T08:07:42.475Z,23.24
2022-08-17T08:08:42.543Z,23.31
2022-08-17T08:09:42.423Z,23.38
2022-08-17T08:10:42.533Z,23.42
2022-08-17T08:11:44.382Z,23.38
2022-08-17T08:12:42.413Z,23.38
2022-08-17T08:13:42.656Z,23.40
2022-08-17T08:14:42.387Z,23.46
2022-08-17T08:15:45.110Z,23.47
2022-08-17T08:16:43.348Z,23.47
2022-08-17T08:17:42.334Z,23.46
2022-08-17T08:18:54.532Z,23.52
2022-08-17T08:19:43.379Z,23.64
2022-08-17T08:20:51.943Z,23.71
2022-08-17T08:21:43.289Z,23.77
2022-08-17T08:22:42.330Z,23.82
2022-08-17T08:23:42.279Z,23.89
2022-08-17T08:24:42.257Z,23.94
2022-08-17T08:25:42.251Z,23.97
2022-08-17T08:26:42.259Z,24.00
2022-08-17T08:27:42.237Z,24.00
2022-08-17T08:28:43.183Z,23.98
2022-08-17T08:29:42.222Z,24.00
2022-08-17T08:30:42.207Z,24.04
2022-08-17T08:31:42.612Z,24.07
2022-08-17T08:32:42.185Z,24.12
2022-08-17T08:33:42.182Z,24.13
2022-08-17T08:35:00.165Z,24.19
2022-08-17T08:35:43.145Z,24.20
2022-08-17T08:37:14.452Z,24.23
2022-08-17T08:37:43.618Z,24.27
2022-08-17T08:38:42.108Z,24.32
2022-08-17T08:39:42.140Z,24.39
2022-08-17T08:40:42.084Z,24.41
2022-08-17T08:41:42.231Z,24.49
2022-08-17T08:42:42.125Z,24.54
2022-08-17T08:43:42.060Z,24.53
2022-08-17T08:45:00.974Z,24.56
2022-08-17T08:45:43.043Z,24.63
2022-08-17T08:46:42.038Z,24.61
2022-08-17T08:47:42.008Z,24.63
2022-08-17T08:48:53.123Z,24.61
2022-08-17T08:50:03.363Z,24.63
2022-08-17T08:50:42.980Z,24.71
2022-08-17T08:51:41.973Z,24.76
2022-08-17T08:52:41.953Z,24.80
2022-08-17T08:53:41.947Z,24.83
2022-08-17T08:54:41.949Z,24.90
2022-08-17T08:55:41.935Z,24.98
2022-08-17T08:56:58.972Z,25.06
2022-08-17T08:57:42.917Z,25.13
2022-08-17T08:58:42.832Z,25.24
2022-08-17T08:59:42.299Z,25.30
2022-08-17T09:00:41.877Z,25.44
2022-08-17T09:01:41.936Z,25.50
2022-08-17T09:02:41.842Z,25.57
2022-08-17T09:03:52.419Z,25.62
2022-08-17T09:05:12.428Z,25.65
2022-08-17T09:05:42.831Z,25.77
2022-08-17T09:06:41.819Z,25.87
2022-08-17T09:07:41.790Z,25.84
2022-08-17T09:08:41.790Z,25.75
2022-08-17T09:09:41.771Z,25.71
2022-08-17T09:10:41.771Z,25.71
2022-08-17T09:12:02.109Z,25.75
2022-08-17T09:12:42.762Z,25.77
2022-08-17T09:13:41.732Z,25.83
2022-08-17T09:14:45.490Z,25.97
2022-08-17T09:15:42.734Z,26.08
2022-08-17T09:16:41.702Z,26.21
2022-08-17T09:17:41.706Z,26.31
2022-08-17T09:19:03.326Z,26.40
2022-08-17T09:19:42.683Z,26.50
2022-08-17T09:20:44.294Z,26.59
2022-08-17T09:21:48.197Z,26.55
2022-08-17T09:22:42.656Z,26.55
2022-08-17T09:23:41.624Z,26.67
2022-08-17T09:24:43.611Z,26.79
2022-08-17T09:25:41.660Z,26.84
2022-08-17T09:26:41.700Z,26.83
2022-08-17T09:27:41.579Z,26.72
2022-08-17T09:28:41.569Z,26.68
2022-08-17T09:29:41.550Z,26.65
2022-08-17T09:30:41.562Z,26.61
2022-08-17T09:31:46.410Z,26.61
2022-08-17T09:32:42.555Z,26.59
2022-08-17T09:33:41.503Z,26.55
2022-08-17T09:34:43.551Z,26.54
2022-08-17T09:35:41.495Z,26.54
2022-08-17T09:36:41.502Z,26.54
2022-08-17T09:37:41.543Z,26.49
2022-08-17T09:38:41.468Z,26.49
2022-08-17T09:39:41.818Z,26.49
2022-08-17T09:40:41.445Z,26.54
2022-08-17T09:41:48.933Z,26.59
2022-08-17T09:42:42.435Z,26.62
2022-08-17T09:43:41.420Z,26.67
2022-08-17T09:44:41.404Z,26.73
2022-08-17T09:45:41.390Z,26.77
2022-08-17T09:46:41.404Z,26.83
2022-08-17T09:47:41.361Z,26.84
2022-08-17T09:48:41.371Z,26.94
2022-08-17T09:49:41.347Z,27.02
2022-08-17T09:51:04.284Z,27.06
2022-08-17T09:51:42.320Z,27.11
2022-08-17T09:52:41.329Z,27.14
2022-08-17T09:53:41.328Z,27.13
2022-08-17T09:54:41.377Z,27.16
2022-08-17T09:55:41.290Z,27.19
2022-08-17T09:56:46.200Z,27.19
2022-08-17T09:57:42.335Z,27.21
2022-08-17T09:58:41.249Z,27.24
2022-08-17T09:59:41.233Z,27.26
2022-08-17T10:00:41.221Z,27.28
2022-08-17T10:01:41.289Z,27.31
2022-08-17T10:02:41.220Z,27.36
2022-08-17T10:03:42.145Z,27.39
2022-08-17T10:04:41.183Z,27.46
2022-08-17T10:05:41.251Z,27.48
2022-08-17T10:06:41.173Z,27.51
2022-08-17T10:07:41.157Z,27.57
2022-08-17T10:08:41.150Z,27.66
2022-08-17T10:09:41.164Z,27.73
2022-08-17T10:10:41.829Z,27.89
2022-08-17T10:11:43.457Z,27.98
2022-08-17T10:12:46.418Z,28.01
2022-08-17T10:13:52.681Z,28.11
2022-08-17T10:14:44.102Z,28.23
2022-08-17T10:15:42.637Z,28.35
2022-08-17T10:16:41.077Z,28.43
2022-08-17T10:17:41.053Z,28.48
2022-08-17T10:18:41.032Z,28.56
2022-08-17T10:19:43.936Z,28.58
2022-08-17T10:20:41.019Z,28.62
2022-08-17T10:21:41.008Z,28.60
2022-08-17T10:22:41.025Z,28.60
2022-08-17T10:23:40.983Z,28.59
2022-08-17T10:24:40.989Z,28.59
2022-08-17T10:25:54.516Z,28.58
2022-08-17T10:26:55.878Z,28.58
2022-08-17T10:27:41.943Z,28.47
2022-08-17T10:28:40.939Z,28.32
2022-08-17T10:29:47.345Z,28.26
2022-08-17T10:30:41.929Z,28.23
2022-08-17T10:31:40.903Z,28.19
2022-08-17T10:32:40.899Z,28.21
2022-08-17T10:33:40.888Z,28.25
2022-08-17T10:34:41.405Z,28.28
2022-08-17T10:35:40.874Z,28.38
2022-08-17T10:36:40.847Z,28.48
2022-08-17T10:37:40.830Z,28.62
2022-08-17T10:38:40.823Z,28.75
2022-08-17T10:39:52.056Z,28.73
2022-08-17T10:40:41.826Z,28.78
2022-08-17T10:41:40.847Z,28.80
2022-08-17T10:42:40.774Z,28.85
2022-08-17T10:43:40.763Z,28.88
2022-08-17T10:44:41.550Z,28.95
2022-08-17T10:45:42.707Z,28.96
2022-08-17T10:46:40.759Z,29.03
2022-08-17T10:47:54.985Z,29.07
2022-08-17T10:48:41.733Z,29.08
2022-08-17T10:49:40.707Z,29.07
2022-08-17T10:50:40.693Z,29.10
2022-08-17T10:51:40.681Z,29.10
2022-08-17T10:52:40.679Z,29.10
2022-08-17T10:53:40.689Z,29.13
2022-08-17T10:54:40.663Z,29.20
2022-08-17T10:55:40.637Z,29.31
2022-08-17T10:56:40.621Z,29.37
2022-08-17T10:57:40.615Z,29.44
2022-08-17T10:58:40.622Z,29.49
2022-08-17T10:59:42.560Z,29.55
2022-08-17T11:00:40.650Z,29.57
2022-08-17T11:01:40.577Z,29.60
2022-08-17T11:02:40.576Z,29.63
2022-08-17T11:03:40.602Z,29.60
2022-08-17T11:04:40.602Z,29.55
2022-08-17T11:05:43.705Z,29.50
2022-08-17T11:06:40.544Z,29.50
2022-08-17T11:07:40.511Z,29.50
2022-08-17T11:08:40.709Z,29.41
2022-08-17T11:09:40.509Z,29.29
2022-08-17T11:10:40.498Z,29.22
2022-08-17T11:11:40.481Z,29.11
2022-08-17T11:12:42.200Z,29.06
2022-08-17T11:13:40.460Z,29.01
2022-08-17T11:14:40.575Z,29.01
2022-08-17T11:15:40.472Z,29.03
2022-08-17T11:16:40.425Z,29.06
2022-08-17T11:17:40.404Z,29.06
2022-08-17T11:18:40.432Z,29.10
2022-08-17T11:19:40.540Z,29.13
2022-08-17T11:20:40.379Z,29.16
2022-08-17T11:21:40.359Z,29.19
2022-08-17T11:22:40.353Z,29.23
2022-08-17T11:23:40.348Z,29.28
2022-08-17T11:24:40.330Z,29.34
2022-08-17T11:25:40.354Z,29.40
2022-08-17T11:26:40.310Z,29.45
2022-08-17T11:27:42.257Z,29.59
2022-08-17T11:28:40.311Z,29.62
2022-08-17T11:29:40.285Z,29.62
2022-08-17T11:30:40.265Z,29.62
2022-08-17T11:31:40.277Z,29.62
2022-08-17T11:32:47.129Z,29.63
2022-08-17T11:33:41.241Z,29.60
2022-08-17T11:34:40.225Z,29.60
2022-08-17T11:35:40.243Z,29.62
2022-08-17T11:36:40.211Z,29.65
2022-08-17T11:37:40.208Z,29.72
2022-08-17T11:38:40.199Z,29.74
2022-08-17T11:39:40.239Z,29.72
2022-08-17T11:40:40.159Z,29.68
2022-08-17T11:41:40.157Z,29.66
2022-08-17T11:42:40.134Z,29.66
2022-08-17T11:43:42.806Z,29.66
2022-08-17T11:44:40.122Z,29.68
2022-08-17T11:45:40.105Z,29.68
2022-08-17T11:46:40.116Z,29.66
2022-08-17T11:47:40.078Z,29.71
2022-08-17T11:48:40.259Z,29.74
2022-08-17T11:49:40.073Z,29.75
2022-08-17T11:50:40.081Z,29.77
2022-08-17T11:51:40.062Z,29.75
2022-08-17T11:52:40.040Z,29.75
2022-08-17T11:53:40.044Z,29.75
2022-08-17T11:54:40.041Z,29.75
2022-08-17T11:55:44.438Z,29.78
2022-08-17T11:56:41.018Z,29.79
2022-08-17T11:57:40.942Z,29.78
2022-08-17T11:58:39.972Z,29.77
2022-08-17T11:59:39.978Z,29.75
2022-08-17T12:00:39.954Z,29.74
2022-08-17T12:01:39.957Z,29.71
2022-08-17T12:02:42.377Z,29.70
2022-08-17T12:03:39.932Z,29.68
2022-08-17T12:04:40.936Z,29.60
2022-08-17T12:05:39.906Z,29.53
2022-08-17T12:06:39.876Z,29.49
2022-08-17T12:07:39.888Z,29.45
2022-08-17T12:08:39.883Z,29.40
2022-08-17T12:09:39.861Z,29.31
2022-08-17T12:10:39.848Z,29.20
2022-08-17T12:11:58.731Z,29.15
2022-08-17T12:12:40.826Z,29.08
2022-08-17T12:13:40.118Z,29.04
2022-08-17T12:15:08.539Z,28.96
2022-08-17T12:15:40.783Z,28.75
2022-08-17T12:16:39.808Z,28.70
2022-08-17T12:17:52.506Z,28.69
2022-08-17T12:18:40.751Z,28.66
2022-08-17T12:19:39.760Z,28.68
2022-08-17T12:20:39.753Z,28.70
2022-08-17T12:21:39.735Z,28.70
2022-08-17T12:22:39.708Z,28.73
2022-08-17T12:23:39.711Z,28.73
2022-08-17T12:24:39.688Z,28.72
2022-08-17T12:25:39.711Z,28.70
2022-08-17T12:26:39.666Z,28.70
2022-08-17T12:27:46.160Z,28.72
2022-08-17T12:28:40.658Z,28.72
2022-08-17T12:29:39.642Z,28.73
2022-08-17T12:30:39.628Z,28.75
2022-08-17T12:31:39.641Z,28.70
2022-08-17T12:32:39.607Z,28.70
2022-08-17T12:33:39.621Z,28.69
2022-08-17T12:34:39.585Z,28.69
2022-08-17T12:35:39.579Z,28.70
2022-08-17T12:36:39.596Z,28.70
2022-08-17T12:37:39.557Z,28.69
2022-08-17T12:38:39.574Z,28.65
2022-08-17T12:39:39.636Z,28.63
2022-08-17T12:40:39.524Z,28.58
2022-08-17T12:41:39.548Z,28.58
2022-08-17T12:42:39.521Z,28.56
2022-08-17T12:43:39.504Z,28.54
2022-08-17T12:44:46.109Z,28.51
2022-08-17T12:45:41.446Z,28.53
2022-08-17T12:46:39.477Z,28.47
2022-08-17T12:47:39.464Z,28.47
2022-08-17T12:48:39.438Z,28.43
2022-08-17T12:49:40.438Z,28.41
2022-08-17T12:50:39.414Z,28.40
2022-08-17T12:51:39.439Z,28.41
2022-08-17T12:52:39.401Z,28.40